createdAt,value
2018-04-11T00:02:20.153Z,13.20
2018-04-11T00:04:46.401Z,13.10
2018-04-11T00:07:13.167Z,13.10
2018-04-11T00:09:40.171Z,12.90
2018-04-11T00:12:06.424Z,12.90
2018-04-11T00:14:33.413Z,12.80
2018-04-11T00:17:00.954Z,12.60
2018-04-11T00:19:27.213Z,12.60
2018-04-11T00:21:55.085Z,12.50
2018-04-11T00:24:22.076Z,12.40
2018-04-11T00:26:48.351Z,12.40
2018-04-11T00:29:14.945Z,12.20
2018-04-11T00:31:41.199Z,12.10
2018-04-11T00:34:08.204Z,12.00
2018-04-11T00:36:35.036Z,11.90
2018-04-11T00:39:02.065Z,11.70
2018-04-11T00:41:28.838Z,11.60
2018-04-11T00:43:55.842Z,11.50
2018-04-11T00:46:22.096Z,11.50
2018-04-11T00:48:48.393Z,11.40
2018-04-11T00:51:14.729Z,11.30
2018-04-11T00:53:42.043Z,11.20
2018-04-11T00:56:08.312Z,11.10
2018-04-11T00:58:34.582Z,11.10
2018-04-11T01:01:00.873Z,11.00
2018-04-11T01:03:27.604Z,10.90
2018-04-11T01:05:54.585Z,10.70
2018-04-11T01:08:21.501Z,10.70
2018-04-11T01:10:49.317Z,10.60
2018-04-11T01:13:16.319Z,10.60
2018-04-11T01:15:43.770Z,10.50
2018-04-11T01:18:10.749Z,10.50
2018-04-11T01:20:37.486Z,10.50
2018-04-11T01:23:04.505Z,10.30
2018-04-11T01:25:31.281Z,10.30
2018-04-11T01:27:58.259Z,10.20
2018-04-11T01:30:24.506Z,10.20
2018-04-11T01:32:51.528Z,10.20
2018-04-11T01:35:18.934Z,10.00
2018-04-11T01:37:45.944Z,9.90
2018-04-11T01:40:12.200Z,9.90
2018-04-11T01:42:39.014Z,9.90
2018-04-11T01:45:06.005Z,9.90
2018-04-11T01:47:32.264Z,9.90
2018-04-11T01:49:59.352Z,9.90
2018-04-11T01:52:26.343Z,9.80
2018-04-11T01:54:53.354Z,9.80
2018-04-11T01:57:21.640Z,9.60
2018-04-11T01:59:48.638Z,9.60
2018-04-11T02:02:15.540Z,9.60
2018-04-11T02:04:42.561Z,9.50
2018-04-11T02:07:09.362Z,9.60
2018-04-11T02:09:36.293Z,9.50
2018-04-11T02:12:04.161Z,9.50
2018-04-11T02:14:31.767Z,9.40
2018-04-11T02:16:58.671Z,9.40
2018-04-11T02:19:25.733Z,9.30
2018-04-11T02:21:52.724Z,9.20
2018-04-11T02:24:19.012Z,9.30
2018-04-11T02:26:46.011Z,9.20
2018-04-11T02:29:12.391Z,9.20
2018-04-11T02:31:38.998Z,9.30
2018-04-11T02:34:05.918Z,9.30
2018-04-11T02:36:32.736Z,9.30
2018-04-11T02:38:59.744Z,9.20
2018-04-11T02:41:26.646Z,9.20
2018-04-11T02:43:53.624Z,9.10
2018-04-11T02:46:19.867Z,9.10
2018-04-11T02:48:46.481Z,9.20
2018-04-11T02:51:12.743Z,9.10
2018-04-11T02:53:39.552Z,9.10
2018-04-11T02:56:06.536Z,9.00
2018-04-11T02:58:32.796Z,9.00
2018-04-11T03:00:59.586Z,8.90
2018-04-11T03:03:27.136Z,8.90
2018-04-11T03:05:53.397Z,8.90
2018-04-11T03:08:20.073Z,8.90
2018-04-11T03:10:46.757Z,8.90
2018-04-11T03:13:13.492Z,8.90
2018-04-11T03:15:40.440Z,8.90
2018-04-11T03:18:08.172Z,8.80
2018-04-11T03:20:34.425Z,8.80
2018-04-11T03:23:00.717Z,8.80
2018-04-11T03:25:27.661Z,8.80
2018-04-11T03:27:55.218Z,8.80
2018-04-11T03:30:22.238Z,8.80
2018-04-11T03:32:48.492Z,8.80
2018-04-11T03:35:15.934Z,8.90
2018-04-11T03:37:42.196Z,8.90
2018-04-11T03:40:09.544Z,8.90
2018-04-11T03:42:36.410Z,8.90
2018-04-11T03:45:03.469Z,8.90
2018-04-11T03:47:30.455Z,9.00
2018-04-11T03:49:56.718Z,8.90
2018-04-11T03:52:23.396Z,9.10
2018-04-11T03:54:51.273Z,9.10
2018-04-11T03:57:17.525Z,9.10
2018-04-11T03:59:43.783Z,9.10
2018-04-11T04:02:10.674Z,9.10
2018-04-11T04:04:37.685Z,8.90
2018-04-11T04:07:04.482Z,8.90
2018-04-11T04:09:31.478Z,8.90
2018-04-11T04:11:58.277Z,8.90
2018-04-11T04:14:39.871Z,8.80
2018-04-11T04:17:19.353Z,8.70
2018-04-11T04:19:58.020Z,8.70
2018-04-11T04:22:25.007Z,8.80
2018-04-11T04:24:52.644Z,8.80
2018-04-11T04:27:19.684Z,9.00
2018-04-11T04:29:47.463Z,9.10
2018-04-11T04:32:15.181Z,9.20
2018-04-11T04:34:41.915Z,9.10
2018-04-11T04:37:08.188Z,9.30
2018-04-11T04:39:34.441Z,9.40
2018-04-11T04:42:01.473Z,9.50
2018-04-11T04:44:27.725Z,9.50
2018-04-11T04:46:55.116Z,9.60
2018-04-11T04:49:21.409Z,9.60
2018-04-11T04:51:47.692Z,9.60
2018-04-11T04:54:14.619Z,9.60
2018-04-11T04:56:40.881Z,9.60
2018-04-11T04:59:07.129Z,9.60
2018-04-11T05:01:34.155Z,9.60
2018-04-11T05:04:01.187Z,9.70
2018-04-11T05:06:28.041Z,9.70
2018-04-11T05:08:55.100Z,9.70
2018-04-11T05:11:22.232Z,9.80
2018-04-11T05:13:49.915Z,10.00
2018-04-11T05:16:16.753Z,10.00
2018-04-11T05:18:43.777Z,10.10
2018-04-11T05:21:10.062Z,10.10
2018-04-11T05:23:36.747Z,10.30
2018-04-11T05:26:03.028Z,10.30
2018-04-11T05:28:29.830Z,10.40
2018-04-11T05:30:56.076Z,10.50
2018-04-11T05:33:23.667Z,10.60
2018-04-11T05:35:51.389Z,10.70
2018-04-11T05:38:17.637Z,10.70
2018-04-11T05:40:44.459Z,10.80
2018-04-11T05:43:10.733Z,10.90
2018-04-11T05:45:37.002Z,11.00
2018-04-11T05:48:03.376Z,11.10
2018-04-11T05:50:29.683Z,11.20
2018-04-11T05:52:56.037Z,11.20
2018-04-11T05:55:23.159Z,11.30
2018-04-11T05:57:49.866Z,11.50
2018-04-11T06:00:16.113Z,11.60
2018-04-11T06:02:42.866Z,11.70
2018-04-11T06:05:09.841Z,12.00
2018-04-11T06:07:36.572Z,12.00
2018-04-11T06:10:03.589Z,12.30
2018-04-11T06:12:29.837Z,12.20
2018-04-11T06:14:56.716Z,12.40
2018-04-11T06:17:23.043Z,12.50
2018-04-11T06:19:50.058Z,13.00
2018-04-11T06:22:16.724Z,13.00
2018-04-11T06:24:43.684Z,13.20
2018-04-11T06:27:11.161Z,13.60
2018-04-11T06:29:37.519Z,13.60
2018-04-11T06:32:04.449Z,13.70
2018-04-11T06:34:31.052Z,13.80
2018-04-11T06:36:57.314Z,13.90
2018-04-11T06:39:24.876Z,14.00
2018-04-11T06:41:51.169Z,14.00
2018-04-11T06:44:17.793Z,14.00
2018-04-11T06:46:44.065Z,14.00
2018-04-11T06:49:10.324Z,14.10
2018-04-11T06:51:37.316Z,14.10
2018-04-11T06:54:04.024Z,14.00
2018-04-11T06:56:31.008Z,13.80
2018-04-11T06:58:58.040Z,13.80
2018-04-11T07:01:24.764Z,14.00
2018-04-11T07:03:52.340Z,14.10
2018-04-11T07:06:19.352Z,14.10
2018-04-11T07:08:46.076Z,14.10
2018-04-11T07:11:12.352Z,14.00
2018-04-11T07:13:39.268Z,14.10
2018-04-11T07:16:05.948Z,14.10
2018-04-11T07:18:33.008Z,14.10
2018-04-11T07:20:59.995Z,14.10
2018-04-11T07:23:26.905Z,14.10
2018-04-11T07:25:53.778Z,14.20
2018-04-11T07:28:20.065Z,14.20
2018-04-11T07:30:46.668Z,14.20
2018-04-11T07:33:14.057Z,14.30
2018-04-11T07:35:40.337Z,14.30
2018-04-11T07:38:07.329Z,14.40
2018-04-11T07:40:34.131Z,14.40
2018-04-11T07:43:01.117Z,14.50
2018-04-11T07:45:27.406Z,14.50
2018-04-11T07:47:53.960Z,14.50
2018-04-11T07:50:20.962Z,14.50
2018-04-11T07:52:47.327Z,14.50
2018-04-11T07:55:15.025Z,14.60
2018-04-11T07:57:42.505Z,14.70
2018-04-11T08:00:08.768Z,14.70
2018-04-11T08:02:35.735Z,14.80
2018-04-11T08:05:02.044Z,14.90
2018-04-11T08:07:28.902Z,15.00
2018-04-11T08:09:55.526Z,15.00
2018-04-11T08:12:22.225Z,15.00
2018-04-11T08:14:49.350Z,15.00
2018-04-11T08:17:16.053Z,15.00
2018-04-11T08:19:42.346Z,15.10
2018-04-11T08:22:09.417Z,15.30
2018-04-11T08:24:36.998Z,15.50
2018-04-11T08:27:04.028Z,15.50
2018-04-11T08:29:30.420Z,15.40
2018-04-11T08:31:56.945Z,15.50
2018-04-11T08:34:23.771Z,15.60
2018-04-11T08:36:50.755Z,15.70
2018-04-11T08:39:17.032Z,15.70
2018-04-11T08:41:43.908Z,15.70
2018-04-11T08:44:10.926Z,15.70
2018-04-11T08:46:37.176Z,15.70
2018-04-11T08:49:03.992Z,15.80
2018-04-11T08:51:30.257Z,15.90
2018-04-11T08:53:57.728Z,15.90
2018-04-11T08:56:25.427Z,16.00
2018-04-11T08:58:52.492Z,16.00
2018-04-11T09:01:19.400Z,16.00
2018-04-11T09:03:46.394Z,16.30
2018-04-11T09:06:13.196Z,16.20
2018-04-11T09:08:40.676Z,16.40
2018-04-11T09:11:07.644Z,16.30
2018-04-11T09:13:34.440Z,16.30
2018-04-11T09:16:01.209Z,16.40
2018-04-11T09:18:28.190Z,16.50
2018-04-11T09:20:54.905Z,16.50
2018-04-11T09:23:21.885Z,16.60
2018-04-11T09:25:48.126Z,16.50
2018-04-11T09:28:14.408Z,16.60
2018-04-11T09:30:40.672Z,16.70
2018-04-11T09:33:08.127Z,16.70
2018-04-11T09:35:36.076Z,16.70
2018-04-11T09:38:02.321Z,16.70
2018-04-11T09:40:29.331Z,16.90
2018-04-11T09:42:55.564Z,16.90
2018-04-11T09:45:21.928Z,17.00
2018-04-11T09:47:48.696Z,16.90
2018-04-11T09:50:16.580Z,17.00
2018-04-11T09:52:44.452Z,17.10
2018-04-11T09:55:12.090Z,17.20
2018-04-11T09:57:38.986Z,17.20
2018-04-11T10:00:05.276Z,17.20
2018-04-11T10:02:36.648Z,17.20
2018-04-11T10:05:03.668Z,17.30
2018-04-11T10:07:30.552Z,17.30
2018-04-11T10:09:57.536Z,17.50
2018-04-11T10:12:24.552Z,17.50
2018-04-11T10:14:52.316Z,17.60
2018-04-11T10:17:19.979Z,17.70
2018-04-11T10:19:47.036Z,17.80
2018-04-11T10:22:14.067Z,18.00
2018-04-11T10:24:40.633Z,17.90
2018-04-11T10:27:07.612Z,18.20
2018-04-11T10:29:34.001Z,18.20
2018-04-11T10:32:00.646Z,18.30
2018-04-11T10:34:29.622Z,18.50
2018-04-11T10:36:56.299Z,18.50
2018-04-11T10:39:23.278Z,18.60
2018-04-11T10:41:49.587Z,18.60
2018-04-11T10:44:16.851Z,18.70
2018-04-11T10:46:43.841Z,18.70
2018-04-11T10:49:10.182Z,18.80
2018-04-11T10:51:36.981Z,18.80
2018-04-11T10:54:04.761Z,19.10
2018-04-11T10:56:31.756Z,19.10
2018-04-11T10:58:58.864Z,19.10
2018-04-11T11:01:26.452Z,19.10
2018-04-11T11:03:52.716Z,19.10
2018-04-11T11:06:19.711Z,19.20
2018-04-11T11:08:47.431Z,19.30
2018-04-11T11:11:14.344Z,19.20
2018-04-11T11:13:40.599Z,19.30
2018-04-11T11:16:07.635Z,19.40
2018-04-11T11:18:33.905Z,19.50
2018-04-11T11:21:00.712Z,19.50
2018-04-11T11:23:27.674Z,19.60
2018-04-11T11:25:54.971Z,19.70
2018-04-11T11:28:21.237Z,19.90
2018-04-11T11:30:48.255Z,20.10
2018-04-11T11:33:15.241Z,20.00
2018-04-11T11:35:42.825Z,20.10
2018-04-11T11:38:09.074Z,20.10
2018-04-11T11:40:35.340Z,20.10
2018-04-11T11:43:02.160Z,20.20
2018-04-11T11:45:28.921Z,20.20
2018-04-11T11:47:55.631Z,20.30
2018-04-11T11:50:21.905Z,20.50
2018-04-11T11:52:48.508Z,20.50
2018-04-11T11:55:15.113Z,20.60
2018-04-11T11:57:41.372Z,20.60
2018-04-11T12:00:08.945Z,20.70
2018-04-11T12:02:36.397Z,20.80
2018-04-11T12:05:04.024Z,20.90
2018-04-11T12:07:30.820Z,20.90
2018-04-11T12:09:57.582Z,20.90
2018-04-11T12:12:24.513Z,21.10
2018-04-11T12:14:52.210Z,21.40
2018-04-11T12:17:18.452Z,21.40
2018-04-11T12:19:44.708Z,21.50
2018-04-11T12:22:11.289Z,21.50
2018-04-11T12:24:38.268Z,21.60
2018-04-11T12:27:04.634Z,21.60
2018-04-11T12:29:30.914Z,21.80
2018-04-11T12:31:57.241Z,21.90
2018-04-11T12:34:25.019Z,22.10
2018-04-11T12:36:52.777Z,22.00
2018-04-11T12:39:19.771Z,22.20
2018-04-11T12:41:46.032Z,22.10
2018-04-11T12:44:12.671Z,22.20
2018-04-11T12:46:39.369Z,22.30
2018-04-11T12:49:05.641Z,22.40
2018-04-11T12:51:32.554Z,22.40
2018-04-11T12:53:59.194Z,22.40
2018-04-11T12:56:25.460Z,22.50
2018-04-11T12:58:51.721Z,22.60
2018-04-11T13:01:18.668Z,22.60
2018-04-11T13:03:45.452Z,22.60
2018-04-11T13:06:12.452Z,22.60
2018-04-11T13:08:39.134Z,22.60
2018-04-11T13:11:06.916Z,22.80
2018-04-11T13:13:33.905Z,22.80
2018-04-11T13:16:02.045Z,22.80
2018-04-11T13:18:29.136Z,22.80
2018-04-11T13:20:56.107Z,22.90
2018-04-11T13:23:22.385Z,22.90
2018-04-11T13:25:49.767Z,23.00
2018-04-11T13:28:16.037Z,23.10
2018-04-11T13:30:42.287Z,23.00
2018-04-11T13:33:09.061Z,22.90
2018-04-11T13:35:36.060Z,22.90
2018-04-11T13:38:02.965Z,22.90
2018-04-11T13:40:30.529Z,22.80
2018-04-11T13:42:58.024Z,22.80
2018-04-11T13:45:24.276Z,22.80
2018-04-11T13:47:51.072Z,22.90
2018-04-11T13:50:18.064Z,22.80
2018-04-11T13:52:45.074Z,22.80
2018-04-11T13:55:12.525Z,23.10
2018-04-11T13:57:39.549Z,23.10
2018-04-11T14:00:08.796Z,23.20
2018-04-11T14:02:36.378Z,23.30
2018-04-11T14:05:02.685Z,23.30
2018-04-11T14:07:30.446Z,23.10
2018-04-11T14:09:56.732Z,23.10
2018-04-11T14:12:22.985Z,23.20
2018-04-11T14:14:49.257Z,23.10
2018-04-11T14:17:16.839Z,23.40
2018-04-11T14:19:43.105Z,23.40
2018-04-11T14:22:09.404Z,23.90
2018-04-11T14:24:36.965Z,24.20
2018-04-11T14:27:04.836Z,24.20
2018-04-11T14:29:31.857Z,24.20
2018-04-11T14:31:58.218Z,24.20
2018-04-11T14:34:25.241Z,24.00
2018-04-11T14:36:51.908Z,23.60
2018-04-11T14:39:18.153Z,23.40
2018-04-11T14:41:45.571Z,23.60
2018-04-11T14:44:12.910Z,23.60
2018-04-11T14:46:39.923Z,23.60
2018-04-11T14:49:07.712Z,23.40
2018-04-11T14:51:34.528Z,23.40
2018-04-11T14:54:02.054Z,23.00
2018-04-11T14:56:28.324Z,22.90
2018-04-11T14:58:55.196Z,22.80
2018-04-11T15:01:22.864Z,22.50
2018-04-11T15:03:49.866Z,22.50
2018-04-11T15:06:16.766Z,22.40
2018-04-11T15:08:44.205Z,22.40
2018-04-11T15:11:10.868Z,22.40
2018-04-11T15:13:37.857Z,22.30
2018-04-11T15:16:04.502Z,22.30
2018-04-11T15:18:30.768Z,22.20
2018-04-11T15:20:57.767Z,22.30
2018-04-11T15:23:24.060Z,22.30
2018-04-11T15:25:51.056Z,22.50
2018-04-11T15:28:17.348Z,22.50
2018-04-11T15:30:44.320Z,22.30
2018-04-11T15:33:12.000Z,22.10
2018-04-11T15:35:38.745Z,22.10
2018-04-11T15:38:05.607Z,22.00
2018-04-11T15:40:31.876Z,21.90
2018-04-11T15:42:58.980Z,21.80
2018-04-11T15:45:25.228Z,21.80
2018-04-11T15:47:51.553Z,21.70
2018-04-11T15:50:17.820Z,21.60
2018-04-11T15:52:44.528Z,21.70
2018-04-11T15:55:11.569Z,21.80
2018-04-11T15:57:39.233Z,21.60
2018-04-11T16:00:06.244Z,21.50
2018-04-11T16:02:33.133Z,21.40
2018-04-11T16:05:00.671Z,21.10
2018-04-11T16:07:27.497Z,21.10
2018-04-11T16:09:55.381Z,20.90
2018-04-11T16:12:21.636Z,20.70
2018-04-11T16:14:48.484Z,20.60
2018-04-11T16:17:15.249Z,20.50
2018-04-11T16:19:43.134Z,20.10
2018-04-11T16:22:09.379Z,20.10
2018-04-11T16:24:35.636Z,19.90
2018-04-11T16:27:01.929Z,19.90
2018-04-11T16:29:28.916Z,19.60
2018-04-11T16:31:55.515Z,19.60
2018-04-11T16:34:23.199Z,19.40
2018-04-11T16:36:50.036Z,19.30
2018-04-11T16:39:17.041Z,19.20
2018-04-11T16:41:43.836Z,19.00
2018-04-11T16:44:10.856Z,19.00
2018-04-11T16:46:37.128Z,19.00
2018-04-11T16:49:04.380Z,18.90
2018-04-11T16:51:31.384Z,18.80
2018-04-11T16:53:58.861Z,18.80
2018-04-11T16:56:25.105Z,18.70
2018-04-11T16:58:51.363Z,18.60
2018-04-11T17:01:19.127Z,18.50
2018-04-11T17:03:46.756Z,18.50
2018-04-11T17:06:13.860Z,18.50
2018-04-11T17:08:40.112Z,18.40
2018-04-11T17:11:06.409Z,18.40
2018-04-11T17:13:33.649Z,18.20
2018-04-11T17:16:00.566Z,18.20
2018-04-11T17:18:27.494Z,18.10
2018-04-11T17:21:06.225Z,18.10
2018-04-11T17:23:45.337Z,18.00
2018-04-11T17:26:24.659Z,17.90
2018-04-11T17:29:06.145Z,17.70
2018-04-11T17:31:33.216Z,17.50
2018-04-11T17:33:59.945Z,17.50
2018-04-11T17:36:26.892Z,17.50
2018-04-11T17:38:54.375Z,17.30
2018-04-11T17:41:20.641Z,17.30
2018-04-11T17:43:46.922Z,17.20
2018-04-11T17:46:14.176Z,17.10
2018-04-11T17:48:41.177Z,17.00
2018-04-11T17:51:07.565Z,17.00
2018-04-11T17:53:35.444Z,16.90
2018-04-11T17:56:02.480Z,16.90
2018-04-11T17:58:30.876Z,16.80
2018-04-11T18:00:58.234Z,16.80
2018-04-11T18:03:25.662Z,16.70
2018-04-11T18:05:51.931Z,16.70
2018-04-11T18:08:19.419Z,16.70
2018-04-11T18:10:46.023Z,16.60
2018-04-11T18:13:12.979Z,16.60
2018-04-11T18:15:40.405Z,16.50
2018-04-11T18:18:07.066Z,16.50
2018-04-11T18:20:33.844Z,16.50
2018-04-11T18:23:00.848Z,16.50
2018-04-11T18:25:27.114Z,16.50
2018-04-11T18:27:54.145Z,16.40
2018-04-11T18:30:21.054Z,16.40
2018-04-11T18:32:48.006Z,16.30
2018-04-11T18:35:14.706Z,16.30
2018-04-11T18:37:41.718Z,16.20
2018-04-11T18:40:08.032Z,16.20
2018-04-11T18:42:34.746Z,16.20
2018-04-11T18:45:01.968Z,16.10
2018-04-11T18:47:28.229Z,16.10
2018-04-11T18:49:55.241Z,16.00
2018-04-11T18:52:21.499Z,16.10
2018-04-11T18:54:48.380Z,16.00
2018-04-11T18:57:15.947Z,15.90
2018-04-11T18:59:42.967Z,15.90
2018-04-11T19:02:09.746Z,15.90
2018-04-11T19:04:36.802Z,15.90
2018-04-11T19:07:04.170Z,15.80
2018-04-11T19:09:30.436Z,15.80
2018-04-11T19:11:57.228Z,15.80
2018-04-11T19:14:24.346Z,15.80
2018-04-11T19:16:51.221Z,15.80
2018-04-11T19:19:18.199Z,15.80
2018-04-11T19:21:44.491Z,15.80
2018-04-11T19:24:10.768Z,15.70
2018-04-11T19:26:38.129Z,15.70
2018-04-11T19:29:06.006Z,15.70
2018-04-11T19:31:32.366Z,15.70
2018-04-11T19:33:59.181Z,15.80
2018-04-11T19:36:27.177Z,15.80
2018-04-11T19:38:53.433Z,15.80
2018-04-11T19:41:19.756Z,15.80
2018-04-11T19:43:46.385Z,15.90
2018-04-11T19:46:12.689Z,16.00
2018-04-11T19:48:41.021Z,16.10
2018-04-11T19:51:07.626Z,16.10
2018-04-11T19:53:35.183Z,15.90
2018-04-11T19:56:02.982Z,15.90
2018-04-11T19:58:29.276Z,15.90
2018-04-11T20:00:56.295Z,15.90
2018-04-11T20:03:23.031Z,15.90
2018-04-11T20:05:49.300Z,16.00
2018-04-11T20:08:16.147Z,16.10
2018-04-11T20:10:43.444Z,16.20
2018-04-11T20:13:09.724Z,16.20
2018-04-11T20:15:36.471Z,16.20
2018-04-11T20:18:03.260Z,16.30
2018-04-11T20:20:30.580Z,16.30
2018-04-11T20:22:56.951Z,16.30
2018-04-11T20:25:25.182Z,16.30
2018-04-11T20:27:51.438Z,16.30
2018-04-11T20:30:18.399Z,16.30
2018-04-11T20:32:46.082Z,16.30
2018-04-11T20:35:13.681Z,16.20
2018-04-11T20:37:39.933Z,16.20
2018-04-11T20:40:06.186Z,16.20
2018-04-11T20:42:32.660Z,16.20
2018-04-11T20:44:59.660Z,16.10
2018-04-11T20:47:26.025Z,16.10
2018-04-11T20:49:53.418Z,16.10
2018-04-11T20:52:20.414Z,16.10
2018-04-11T20:54:47.382Z,16.10
2018-04-11T20:57:13.645Z,16.20
2018-04-11T20:59:41.015Z,16.20
2018-04-11T21:02:07.760Z,16.10
2018-04-11T21:04:34.752Z,16.20
2018-04-11T21:07:01.649Z,16.10
2018-04-11T21:09:28.645Z,16.10
2018-04-11T21:11:55.450Z,16.10
2018-04-11T21:14:22.449Z,16.10
2018-04-11T21:16:50.177Z,16.10
2018-04-11T21:19:17.196Z,16.10
2018-04-11T21:21:43.456Z,16.10
2018-04-11T21:24:11.553Z,16.10
2018-04-11T21:26:37.808Z,16.10
2018-04-11T21:29:04.078Z,16.10
2018-04-11T21:31:30.851Z,16.00
2018-04-11T21:33:58.525Z,15.90
2018-04-11T21:36:25.591Z,15.90
2018-04-11T21:38:51.900Z,15.90
2018-04-11T21:41:18.901Z,15.80
2018-04-11T21:43:45.167Z,15.80
2018-04-11T21:46:11.528Z,15.80
2018-04-11T21:48:39.192Z,15.60
2018-04-11T21:51:06.180Z,15.60
2018-04-11T21:53:32.983Z,15.60
2018-04-11T21:56:00.436Z,15.60
2018-04-11T21:58:26.718Z,15.60
2018-04-11T22:00:53.019Z,15.60
2018-04-11T22:03:20.747Z,15.50
2018-04-11T22:05:47.012Z,15.50
2018-04-11T22:08:13.892Z,15.30
2018-04-11T22:10:40.724Z,15.20
2018-04-11T22:13:07.720Z,15.10
2018-04-11T22:15:34.425Z,15.10
2018-04-11T22:18:01.415Z,15.10
2018-04-11T22:20:27.753Z,15.10
2018-04-11T22:22:55.690Z,15.00
2018-04-11T22:25:22.681Z,14.90
2018-04-11T22:27:49.711Z,14.90
2018-04-11T22:30:16.444Z,14.80
2018-04-11T22:32:43.444Z,14.80
2018-04-11T22:35:10.036Z,14.80
2018-04-11T22:37:37.032Z,15.00
2018-04-11T22:40:03.361Z,14.90
2018-04-11T22:42:29.653Z,14.90
2018-04-11T22:44:56.724Z,15.00
2018-04-11T22:47:23.292Z,14.90
2018-04-11T22:49:49.538Z,15.00
2018-04-11T22:52:15.784Z,15.20
2018-04-11T22:54:42.761Z,15.20
2018-04-11T22:57:10.569Z,15.20
2018-04-11T22:59:37.497Z,15.20
2018-04-11T23:02:04.216Z,15.20
2018-04-11T23:04:31.420Z,15.10
2018-04-11T23:06:58.145Z,14.90
2018-04-11T23:09:24.423Z,15.00
2018-04-11T23:11:51.305Z,14.90
2018-04-11T23:14:18.364Z,14.80
2018-04-11T23:16:45.961Z,14.80
2018-04-11T23:19:12.723Z,14.80
2018-04-11T23:21:38.980Z,14.80
2018-04-11T23:24:05.280Z,14.80
2018-04-11T23:26:31.882Z,14.70
2018-04-11T23:28:58.129Z,14.60
2018-04-11T23:31:25.449Z,14.40
2018-04-11T23:33:51.705Z,14.40
2018-04-11T23:36:17.943Z,14.30
2018-04-11T23:38:44.248Z,14.20
2018-04-11T23:41:10.505Z,14.20
2018-04-11T23:43:37.505Z,14.00
2018-04-11T23:46:03.786Z,14.00
2018-04-11T23:48:30.136Z,13.90
2018-04-11T23:50:56.683Z,13.80
2018-04-11T23:53:24.515Z,13.70
2018-04-11T23:55:50.761Z,13.60
2018-04-11T23:58:17.755Z,13.60
